Terminal Aerodrome Forecast
Issued by NWS

Home | Current Version | Previous Version | Text Only | Print | Product List | Glossary On
Versions: 1 2 3 4 5 6 7 8 9 10 11 12 13 14 15 16 17 18
549
FTUS43 KDLH 191120
TAFHIB
TAF
KHIB 191120Z 1912/2012 25006KT P6SM FEW250
     FM191900 21010G16KT P6SM FEW250
     FM200300 20006KT P6SM FEW250 WS020/22035KT
     FM200800 18006KT P6SM FEW250=

USA.gov is the U.S. government's official web portal to all federal, state and local government web resources and services.